Time;durP1;ratioP1;P1;durP2;ratioP2;P2;SDS_P1;SDS_P2;PMS_P1;PMS_P2;Temp;Humidity;BMP_temperature;BMP_pressure;BME280_temperature;BME280_humidity;BME280_pressure;Samples;Min_cycle;Max_cycle;Signal;HPM_P1;HPM_P2
2022/09/12 00:01:02;;;;;;;16.77;12.33;;;;;;;13.12;100.00;100249.59;4994947;28;20249;-62
2022/09/12 00:03:27;;;;;;;18.23;11.87;;;;;;;13.21;100.00;100237.88;5001848;28;20809;-62
2022/09/12 00:05:52;;;;;;;15.23;12.00;;;;;;;13.13;100.00;100237.53;4993786;28;20199;-62
2022/09/12 00:08:18;;;;;;;15.07;12.40;;;;;;;13.10;100.00;100235.97;4992255;28;20681;-62
2022/09/12 00:10:44;;;;;;;18.83;12.90;;;;;;;13.08;100.00;100230.06;4987257;28;20227;-61
2022/09/12 00:13:10;;;;;;;13.77;12.20;;;;;;;13.04;100.00;100238.94;4991056;28;20180;-62
2022/09/12 00:15:40;;;;;;;14.13;12.40;;;;;;;13.02;100.00;100236.44;4989184;28;20196;-62
2022/09/12 00:18:08;;;;;;;14.93;12.67;;;;;;;13.05;100.00;100232.84;5004262;28;20278;-62
2022/09/12 00:20:34;;;;;;;13.53;12.13;;;;;;;12.99;100.00;100241.78;4982402;28;20231;-62
2022/09/12 00:22:59;;;;;;;13.60;12.20;;;;;;;12.95;100.00;100237.75;4998551;28;21016;-62
2022/09/12 00:25:25;;;;;;;16.80;12.87;;;;;;;12.97;100.00;100238.47;4992453;28;20199;-61
2022/09/12 00:27:50;;;;;;;14.97;13.37;;;;;;;12.99;100.00;100233.22;4994759;28;20544;-61
2022/09/12 00:30:15;;;;;;;15.80;13.00;;;;;;;12.81;100.00;100233.41;4984189;28;20195;-62
2022/09/12 00:32:41;;;;;;;16.53;13.83;;;;;;;12.88;100.00;100233.88;5007119;28;20179;-61
2022/09/12 00:35:06;;;;;;;16.90;13.77;;;;;;;12.84;100.00;100229.84;4995792;28;20196;-61
2022/09/12 00:37:34;;;;;;;15.33;13.73;;;;;;;12.78;100.00;100227.66;4990237;28;20552;-62
2022/09/12 00:39:59;;;;;;;18.80;13.77;;;;;;;12.76;100.00;100238.03;4986638;28;20195;-62
2022/09/12 00:42:24;;;;;;;14.27;12.60;;;;;;;12.76;100.00;100230.31;4984908;28;20232;-61
2022/09/12 00:44:51;;;;;;;16.27;13.50;;;;;;;12.77;100.00;100224.22;4989113;28;20191;-62
2022/09/12 00:47:36;;;;;;;15.77;14.07;;;;;;;12.68;100.00;100222.22;4993214;28;20750;-62
2022/09/12 00:50:09;;;;;;;19.97;13.63;;;;;;;12.69;100.00;100221.28;4990288;28;20199;-63
2022/09/12 00:52:40;;;;;;;22.27;14.23;;;;;;;12.69;100.00;100219.53;4981572;28;20200;-62
2022/09/12 00:55:10;;;;;;;18.27;13.57;;;;;;;12.64;100.00;100219.00;4991572;28;20287;-62
2022/09/12 00:58:07;;;;;;;20.40;13.70;;;;;;;12.57;100.00;100222.88;4994252;28;20191;-62
2022/09/12 01:00:32;;;;;;;17.97;13.83;;;;;;;12.61;100.00;100219.16;4980047;28;20235;-62
2022/09/12 01:03:06;;;;;;;17.63;13.50;;;;;;;12.58;100.00;100219.38;4988287;28;20195;-61
2022/09/12 01:05:35;;;;;;;21.53;14.57;;;;;;;12.60;100.00;100209.75;4991870;28;20231;-62
2022/09/12 01:08:05;;;;;;;17.03;13.13;;;;;;;12.55;100.00;100215.22;4990270;28;20202;-61
2022/09/12 01:10:34;;;;;;;22.90;14.80;;;;;;;12.53;100.00;100209.31;4983379;28;20242;-62
2022/09/12 01:13:00;;;;;;;16.83;13.87;;;;;;;12.50;100.00;100214.69;4987458;28;20278;-62
2022/09/12 01:15:25;;;;;;;23.87;15.93;;;;;;;12.55;100.00;100214.38;4992581;28;20277;-62
2022/09/12 01:18:12;;;;;;;21.67;14.50;;;;;;;12.36;100.00;100212.09;4991875;28;20195;-62
2022/09/12 01:20:47;;;;;;;19.27;15.37;;;;;;;12.45;100.00;100205.56;4986240;28;20230;-61
2022/09/12 01:23:38;;;;;;;20.43;15.13;;;;;;;12.40;100.00;100206.66;4990033;28;20183;-61
2022/09/12 01:26:33;;;;;;;21.43;15.27;;;;;;;12.42;100.00;100201.41;4982578;28;20285;-61
2022/09/12 01:29:17;;;;;;;23.20;15.63;;;;;;;12.28;100.00;100202.25;4991995;28;20187;-61
2022/09/12 01:32:00;;;;;;;21.50;15.43;;;;;;;12.30;100.00;100197.81;4999056;28;20302;-61
2022/09/12 01:34:31;;;;;;;22.70;15.80;;;;;;;12.32;100.00;100193.41;4984447;28;20848;-62
2022/09/12 01:37:24;;;;;;;23.00;15.43;;;;;;;12.25;100.00;100205.84;4990798;28;20388;-62
2022/09/12 01:40:15;;;;;;;19.87;14.87;;;;;;;12.13;100.00;100210.88;4980954;28;20258;-62
2022/09/12 01:42:53;;;;;;;22.33;15.10;;;;;;;12.18;100.00;100199.38;4993032;28;20216;-61
2022/09/12 01:45:46;;;;;;;21.33;15.70;;;;;;;12.20;100.00;100205.25;4987496;28;20222;-62
2022/09/12 01:48:22;;;;;;;23.57;15.57;;;;;;;12.23;100.00;100194.78;4983215;28;20191;-63
2022/09/12 01:51:28;;;;;;;19.93;15.70;;;;;;;12.17;100.00;100195.16;4986922;28;20346;-62
2022/09/12 01:54:03;;;;;;;21.67;14.80;;;;;;;12.17;100.00;100195.16;4990135;28;20535;-62
2022/09/12 01:56:32;;;;;;;23.27;16.10;;;;;;;12.19;100.00;100193.31;5001868;28;20584;-61
2022/09/12 01:59:05;;;;;;;24.07;16.70;;;;;;;12.15;100.00;100191.00;4991748;28;20210;-62
2022/09/12 02:01:32;;;;;;;22.77;16.60;;;;;;;12.15;100.00;100183.28;4997054;28;20223;-62
2022/09/12 02:04:16;;;;;;;28.13;17.30;;;;;;;12.11;100.00;100192.94;5001791;28;20238;-64
2022/09/12 02:06:48;;;;;;;26.87;17.13;;;;;;;12.10;100.00;100192.09;4988106;28;20211;-62
2022/09/12 02:09:36;;;;;;;27.23;17.63;;;;;;;12.02;100.00;100188.31;4991158;28;20218;-61
2022/09/12 02:12:04;;;;;;;22.63;16.23;;;;;;;12.11;100.00;100192.94;4995671;28;20281;-62
2022/09/12 02:14:36;;;;;;;25.37;17.10;;;;;;;12.09;100.00;100187.03;4991371;28;20220;-62
2022/09/12 02:17:15;;;;;;;21.83;17.37;;;;;;;12.04;100.00;100183.91;4991805;28;20194;-63
2022/09/12 02:19:56;;;;;;;23.50;17.73;;;;;;;12.04;100.00;100191.63;4990551;28;20283;-62
2022/09/12 02:22:25;;;;;;;26.40;17.00;;;;;;;12.06;100.00;100188.03;4992512;28;20250;-62
2022/09/12 02:24:56;;;;;;;27.10;17.57;;;;;;;12.08;100.00;100186.22;4986212;28;20190;-61
2022/09/12 02:27:27;;;;;;;24.43;15.47;;;;;;;12.10;100.00;100186.94;4988845;28;20675;-62
2022/09/12 02:29:52;;;;;;;22.70;16.60;;;;;;;12.18;100.00;100186.50;4988220;28;20191;-61
2022/09/12 02:32:37;;;;;;;24.90;17.43;;;;;;;12.05;100.00;100178.66;4995640;28;20302;-62
2022/09/12 02:35:21;;;;;;;27.40;17.73;;;;;;;11.97;100.00;100174.88;4988911;28;20182;-62
2022/09/12 02:38:03;;;;;;;27.67;17.83;;;;;;;11.95;100.00;100180.09;4990436;28;20187;-61
2022/09/12 02:40:29;;;;;;;23.03;16.57;;;;;;;11.88;100.00;100183.94;4983751;28;20240;-61
2022/09/12 02:42:55;;;;;;;24.20;16.30;;;;;;;11.98;100.00;100179.09;5002433;28;20191;-61
2022/09/12 02:45:22;;;;;;;23.73;16.97;;;;;;;11.99;100.00;100186.75;4991028;28;20202;-61
2022/09/12 02:48:05;;;;;;;21.33;16.07;;;;;;;12.05;100.00;100180.41;4989072;28;20193;-62
2022/09/12 02:50:31;;;;;;;24.30;16.77;;;;;;;11.93;100.00;100176.75;4993741;28;20242;-63
2022/09/12 02:53:02;;;;;;;21.53;16.37;;;;;;;11.94;100.00;100174.13;5000465;28;20171;-62
2022/09/12 02:55:29;;;;;;;23.37;15.33;;;;;;;11.95;100.00;100177.50;4990275;28;20246;-61
2022/09/12 02:57:55;;;;;;;25.87;17.60;;;;;;;11.95;100.00;100172.34;4990521;28;20191;-62
2022/09/12 03:00:22;;;;;;;26.00;17.33;;;;;;;11.93;100.00;100166.44;4970004;28;20191;-61
2022/09/12 03:03:11;;;;;;;24.40;17.47;;;;;;;11.84;100.00;100172.16;4986211;28;20184;-61
2022/09/12 03:05:44;;;;;;;25.63;17.27;;;;;;;11.88;100.00;100168.47;4993189;28;20211;-62
2022/09/12 03:08:39;;;;;;;26.17;16.87;;;;;;;11.72;100.00;100158.22;4989740;28;20222;-61
2022/09/12 03:11:08;;;;;;;22.30;16.43;;;;;;;11.76;100.00;100167.47;4994699;28;20244;-61
2022/09/12 03:13:54;;;;;;;27.17;17.87;;;;;;;11.68;100.00;100172.22;4984837;28;20226;-62
2022/09/12 03:16:32;;;;;;;24.20;16.50;;;;;;;11.66;100.00;100169.75;4981392;28;20268;-61
2022/09/12 03:19:55;;;;;;;24.10;16.90;;;;;;;11.60;100.00;100167.53;4988819;28;20179;-62
2022/09/12 03:22:44;;;;;;;25.73;18.17;;;;;;;11.63;100.00;100172.47;4961797;28;20239;-61
2022/09/12 03:25:25;;;;;;;23.37;17.10;;;;;;;11.60;100.00;100170.91;4975731;28;20218;-61
2022/09/12 03:27:59;;;;;;;23.60;16.93;;;;;;;11.65;100.00;100175.81;4993556;28;20226;-62
2022/09/12 03:30:25;;;;;;;23.20;16.47;;;;;;;11.67;100.00;100171.41;4943202;28;20685;-62
2022/09/12 03:32:53;;;;;;;26.10;16.97;;;;;;;11.66;100.00;100169.75;4982722;28;20195;-62
2022/09/12 03:35:21;;;;;;;21.97;16.57;;;;;;;11.67;100.00;100173.13;4977491;28;20182;-62
2022/09/12 03:37:48;;;;;;;26.53;18.17;;;;;;;11.66;100.00;100162.00;4986976;28;20231;-62
2022/09/12 03:40:14;;;;;;;23.23;17.10;;;;;;;11.67;100.00;100167.97;4961281;28;20277;-62
2022/09/12 03:42:40;;;;;;;23.87;16.23;;;;;;;11.61;100.00;100171.75;4976474;28;20187;-61
2022/09/12 03:45:06;;;;;;;27.80;17.87;;;;;;;11.56;100.00;100174.59;4992843;28;20203;-61
2022/09/12 03:47:31;;;;;;;19.87;15.23;;;;;;;11.50;100.00;100171.53;4992041;28;20217;-62
2022/09/12 03:49:56;;;;;;;19.37;14.47;;;;;;;11.55;100.00;100177.28;4974657;28;20335;-65
2022/09/12 03:52:23;;;;;;;21.30;15.47;;;;;;;11.49;100.00;100175.03;4981087;28;20235;-61
2022/09/12 03:54:48;;;;;;;21.07;14.27;;;;;;;11.44;100.00;100173.53;5006318;28;20721;-62
2022/09/12 03:57:13;;;;;;;26.50;14.60;;;;;;;11.42;100.00;100177.97;4993435;28;20274;-61
2022/09/12 03:59:39;;;;;;;26.73;15.20;;;;;;;11.44;100.00;100168.38;4994596;28;20663;-62
2022/09/12 04:02:04;;;;;;;24.33;16.33;;;;;;;11.42;100.00;100166.81;4982422;28;20306;-62
2022/09/12 04:04:30;;;;;;;26.63;18.93;;;;;;;11.37;100.00;100171.41;5001351;28;20187;-61
2022/09/12 04:06:55;;;;;;;30.43;18.60;;;;;;;11.32;100.00;100170.84;4993155;28;20253;-60
2022/09/12 04:09:20;;;;;;;23.53;16.93;;;;;;;11.29;100.00;100172.66;4991211;28;20602;-61
2022/09/12 04:11:45;;;;;;;23.47;17.40;;;;;;;11.32;100.00;100170.84;4997116;28;20352;-60
2022/09/12 04:14:11;;;;;;;30.70;18.93;;;;;;;11.32;100.00;100168.28;4994935;28;20239;-60
2022/09/12 04:16:36;;;;;;;26.97;17.53;;;;;;;11.28;100.00;100175.34;4990119;28;20204;-63
2022/09/12 04:19:02;;;;;;;26.27;18.17;;;;;;;11.18;100.00;100174.19;4992719;28;20198;-63
2022/09/12 04:21:28;;;;;;;32.17;18.90;;;;;;;11.26;100.00;100172.84;4994611;28;20255;-60
2022/09/12 04:23:53;;;;;;;25.53;18.07;;;;;;;11.18;100.00;100174.19;4996948;28;20723;-60
2022/09/12 04:26:19;;;;;;;25.97;17.63;;;;;;;11.28;100.00;100175.34;4992929;28;20294;-60
2022/09/12 04:28:46;;;;;;;34.10;19.67;;;;;;;11.23;100.00;100180.72;4993449;28;20510;-60
2022/09/12 04:31:16;;;;;;;31.73;19.27;;;;;;;11.26;100.00;100172.84;4992431;28;20233;-60
2022/09/12 04:33:42;;;;;;;29.57;18.60;;;;;;;11.22;100.00;100176.50;4990942;28;20196;-60
2022/09/12 04:36:13;;;;;;;29.47;19.43;;;;;;;11.15;100.00;100172.63;4996965;28;20673;-61
2022/09/12 04:38:38;;;;;;;30.47;18.80;;;;;;;11.14;100.00;100181.25;4981515;28;20229;-62
2022/09/12 04:41:14;;;;;;;28.57;18.03;;;;;;;11.01;100.00;100177.69;4980261;28;20252;-62
2022/09/12 04:43:40;;;;;;;30.23;19.97;;;;;;;11.07;100.00;100173.03;4985948;28;20222;-61
2022/09/12 04:46:07;;;;;;;29.80;18.40;;;;;;;11.03;100.00;100176.69;4991658;28;20252;-61
2022/09/12 04:48:33;;;;;;;29.43;18.67;;;;;;;11.08;100.00;100174.69;4991228;28;20211;-62
2022/09/12 04:51:16;;;;;;;33.53;19.63;;;;;;;11.01;100.00;100177.69;4990189;28;20238;-62
2022/09/12 04:53:42;;;;;;;28.03;19.03;;;;;;;11.01;100.00;100169.97;4989276;28;20198;-64
2022/09/12 04:56:10;;;;;;;32.70;20.83;;;;;;;11.02;100.00;100171.66;4992783;28;20186;-61
2022/09/12 04:58:36;;;;;;;31.93;20.47;;;;;;;11.04;100.00;100173.22;4992991;28;20547;-61
2022/09/12 05:01:06;;;;;;;28.43;19.47;;;;;;;11.07;100.00;100170.47;4981145;28;20252;-61
2022/09/12 05:03:32;;;;;;;32.80;19.90;;;;;;;11.14;100.00;100166.63;4988678;28;20610;-62
2022/09/12 05:05:57;;;;;;;28.33;19.47;;;;;;;11.15;100.00;100177.78;4986978;28;20220;-62
2022/09/12 05:08:22;;;;;;;30.80;20.43;;;;;;;11.18;100.00;100175.00;4993487;28;20215;-61
2022/09/12 05:10:48;;;;;;;27.67;20.00;;;;;;;11.18;100.00;100166.47;4980606;28;20261;-61
2022/09/12 05:13:13;;;;;;;32.60;20.73;;;;;;;11.27;100.00;100173.66;4996390;28;20190;-61
2022/09/12 05:15:38;;;;;;;31.83;19.63;;;;;;;11.18;100.00;100179.34;4990489;28;20222;-61
2022/09/12 05:18:05;;;;;;;33.47;20.10;;;;;;;11.30;100.00;100181.25;4993159;28;20634;-61
2022/09/12 05:20:31;;;;;;;30.40;19.93;;;;;;;11.39;100.00;100178.13;4986272;28;20627;-61
2022/09/12 05:22:58;;;;;;;27.37;19.53;;;;;;;11.51;100.00;100175.75;4991127;28;20188;-62
2022/09/12 05:25:23;;;;;;;29.37;20.10;;;;;;;11.49;100.00;100181.00;4991115;28;20214;-61
2022/09/12 05:27:51;;;;;;;27.70;19.27;;;;;;;11.52;100.00;100180.00;4991641;28;20544;-61
2022/09/12 05:30:16;;;;;;;28.53;19.07;;;;;;;11.59;100.00;100169.25;4983228;28;20200;-62
2022/09/12 05:32:42;;;;;;;27.13;17.93;;;;;;;11.68;100.00;100178.19;4988723;28;20271;-61
2022/09/12 05:35:07;;;;;;;26.57;18.50;;;;;;;11.81;100.00;100182.63;4997032;28;20183;-61
2022/09/12 05:37:32;;;;;;;31.13;19.37;;;;;;;11.90;100.00;100184.69;4993638;28;20190;-61
2022/09/12 05:39:58;;;;;;;23.17;17.13;;;;;;;11.82;100.00;100176.56;4990044;28;20199;-62
2022/09/12 05:42:23;;;;;;;23.20;16.53;;;;;;;11.87;100.00;100172.81;4984869;28;20224;-61
2022/09/12 05:44:49;;;;;;;24.47;17.30;;;;;;;11.90;100.00;100171.81;4990119;28;20183;-61
2022/09/12 05:47:15;;;;;;;22.37;16.70;;;;;;;12.13;100.00;100172.22;4990638;28;20241;-63
2022/09/12 05:49:42;;;;;;;19.63;17.00;;;;;;;12.32;100.00;100175.34;4989662;28;20191;-61
2022/09/12 05:52:07;;;;;;;23.10;16.90;;;;;;;12.43;100.00;100172.13;4981079;28;20235;-62
2022/09/12 05:54:33;;;;;;;20.10;16.37;;;;;;;12.62;100.00;100170.97;4990481;28;20241;-62
2022/09/12 05:56:58;;;;;;;26.57;17.83;;;;;;;12.58;100.00;100162.59;4990270;28;20179;-61
2022/09/12 05:59:24;;;;;;;22.20;17.60;;;;;;;12.80;100.00;100163.81;4992092;28;20183;-61
2022/09/12 06:01:49;;;;;;;21.47;17.03;;;;;;;12.95;100.00;100159.44;4994293;28;20276;-61
2022/09/12 06:04:15;;;;;;;19.40;15.27;;;;;;;13.08;100.00;100166.34;4992668;28;20627;-61
2022/09/12 06:06:47;;;;;;;24.90;16.87;;;;;;;13.21;100.00;100170.72;4988701;28;20211;-61
2022/09/12 06:09:14;;;;;;;23.77;17.40;;;;;;;13.34;100.00;100170.75;4976836;28;20230;-62
2022/09/12 06:11:39;;;;;;;21.77;17.73;;;;;;;13.52;100.00;100166.13;4991054;28;20227;-65
2022/09/12 06:14:06;;;;;;;23.00;17.03;;;;;;;13.60;100.00;100169.06;4986567;28;20238;-61
2022/09/12 06:16:33;;;;;;;21.00;16.87;;;;;;;13.73;100.00;100171.66;4989069;28;20661;-62
2022/09/12 06:19:00;;;;;;;19.83;16.17;;;;;;;13.96;100.00;100166.69;4990227;28;20635;-62
2022/09/12 06:21:27;;;;;;;24.33;17.10;;;;;;;14.17;100.00;100160.06;4980352;28;20265;-62
2022/09/12 06:23:53;;;;;;;25.43;18.97;;;;;;;14.19;100.00;100153.03;4992457;28;20183;-62
2022/09/12 06:26:24;;;;;;;21.40;17.50;;;;;;;14.42;100.00;100153.19;4990017;28;20211;-61
2022/09/12 06:28:50;;;;;;;18.80;16.50;;;;;;;14.37;100.00;100157.84;4992078;28;20191;-61
2022/09/12 06:31:18;;;;;;;20.80;16.60;;;;;;;14.27;100.00;100154.25;4991213;28;20234;-62
2022/09/12 06:33:46;;;;;;;17.77;15.83;;;;;;;14.42;100.00;100162.72;4996667;28;20220;-62
2022/09/12 06:36:14;;;;;;;20.07;17.30;;;;;;;14.27;100.00;100154.25;4994740;28;20199;-62
2022/09/12 06:38:40;;;;;;;16.80;14.60;;;;;;;14.64;100.00;100162.03;4990616;28;20188;-62
2022/09/12 06:41:07;;;;;;;18.83;14.47;;;;;;;15.50;100.00;100155.00;4979516;28;20241;-62
2022/09/12 06:43:33;;;;;;;14.07;12.77;;;;;;;15.72;100.00;100148.22;4982965;28;20187;-62
2022/09/12 06:45:59;;;;;;;14.13;12.63;;;;;;;16.40;100.00;100158.66;4985650;28;20203;-62
2022/09/12 06:48:24;;;;;;;13.50;12.10;;;;;;;17.74;100.00;100155.63;4980705;28;20258;-62
2022/09/12 06:51:09;;;;;;;14.27;11.33;;;;;;;19.40;99.67;100148.31;4987956;28;20588;-61
2022/09/12 06:53:37;;;;;;;10.77;9.70;;;;;;;20.83;82.73;100149.00;4997646;28;20189;-63
2022/09/12 06:56:14;;;;;;;11.13;10.03;;;;;;;20.93;80.33;100153.16;4988829;28;20195;-62
2022/09/12 06:58:41;;;;;;;9.93;8.97;;;;;;;20.95;80.42;100159.06;4995072;28;20182;-62
2022/09/12 07:01:08;;;;;;;10.37;9.30;;;;;;;20.76;79.79;100151.34;4975068;28;20314;-62
2022/09/12 07:03:34;;;;;;;11.90;10.17;;;;;;;20.24;82.57;100155.38;4982774;28;20225;-62
2022/09/12 07:06:05;;;;;;;10.07;9.13;;;;;;;20.70;81.50;100154.53;4994778;28;20350;-62
2022/09/12 07:08:30;;;;;;;10.37;9.40;;;;;;;22.58;68.84;100162.97;4994174;28;20233;-62
2022/09/12 07:10:58;;;;;;;9.50;8.47;;;;;;;23.16;63.60;100169.91;4990821;28;20328;-63
2022/09/12 07:13:24;;;;;;;9.93;8.93;;;;;;;22.15;68.29;100160.34;4999077;28;20198;-63
2022/09/12 07:15:50;;;;;;;10.03;8.97;;;;;;;21.04;74.42;100165.19;4990583;28;20272;-62
2022/09/12 07:18:15;;;;;;;9.97;9.07;;;;;;;21.81;72.38;100155.94;5004002;28;20262;-63
2022/09/12 07:20:41;;;;;;;8.80;7.90;;;;;;;22.02;70.44;100156.34;4983343;28;20329;-62
2022/09/12 07:23:06;;;;;;;9.90;9.00;;;;;;;22.09;66.78;100157.38;4992502;28;20188;-63
2022/09/12 07:25:32;;;;;;;9.83;8.90;;;;;;;22.64;66.85;100165.75;4998851;28;20226;-63
2022/09/12 07:27:57;;;;;;;10.17;8.20;;;;;;;23.13;64.95;100166.78;4993396;28;20191;-64
2022/09/12 07:30:22;;;;;;;9.00;8.20;;;;;;;22.93;65.38;100168.91;4963808;28;20216;-63
2022/09/12 07:32:52;;;;;;;10.40;9.50;;;;;;;24.01;57.73;100162.56;4998230;28;20211;-62
2022/09/12 07:35:18;;;;;;;9.70;8.80;;;;;;;23.82;56.51;100167.19;4994452;28;20183;-63
2022/09/12 07:37:43;;;;;;;9.95;8.85;;;;;;;23.35;60.46;100170.56;4990212;28;20267;-62
2022/09/12 07:40:09;;;;;;;9.25;8.50;;;;;;;24.21;56.58;100157.69;4982626;28;20206;-63
2022/09/12 07:42:34;;;;;;;10.38;8.93;;;;;;;23.87;56.39;100164.06;5009030;28;20642;-63
2022/09/12 07:44:59;;;;;;;10.27;9.05;;;;;;;23.72;58.25;100158.69;4993299;28;20194;-62
2022/09/12 07:47:25;;;;;;;12.45;9.10;;;;;;;23.77;56.04;100159.00;4994411;28;20254;-63
2022/09/12 07:49:51;;;;;;;9.80;8.98;;;;;;;23.55;58.17;100151.84;4993467;28;20632;-62
2022/09/12 07:52:16;;;;;;;10.27;9.00;;;;;;;23.68;58.37;100152.94;4997231;28;20237;-63
2022/09/12 07:54:41;;;;;;;9.82;9.02;;;;;;;23.05;60.14;100151.84;4993582;28;20187;-62
2022/09/12 07:57:07;;;;;;;10.10;9.20;;;;;;;23.09;61.34;100155.78;4994489;28;20191;-63
2022/09/12 07:59:32;;;;;;;13.55;10.07;;;;;;;22.73;62.28;100156.09;4992680;28;20550;-63
2022/09/12 08:01:58;;;;;;;11.45;9.60;;;;;;;22.30;65.55;100150.91;4982236;28;20292;-62
2022/09/12 08:04:23;;;;;;;10.37;9.17;;;;;;;22.04;68.09;100156.19;4991878;28;20179;-62
2022/09/12 08:06:48;;;;;;;10.77;9.35;;;;;;;23.06;61.48;100166.63;4994227;28;20208;-62
2022/09/12 08:09:16;;;;;;;10.32;9.38;;;;;;;23.04;62.94;100161.50;4994455;28;20187;-63
2022/09/12 08:11:41;;;;;;;11.63;9.13;;;;;;;23.58;59.02;100159.38;4996105;28;20222;-62
2022/09/12 08:14:07;;;;;;;10.15;9.00;;;;;;;23.77;58.14;100160.81;4988879;28;20233;-62
2022/09/12 08:16:33;;;;;;;9.45;8.60;;;;;;;24.47;54.33;100159.22;4992404;28;20184;-63
2022/09/12 08:19:00;;;;;;;11.70;9.20;;;;;;;24.21;54.84;100155.06;4993450;28;20190;-62
2022/09/12 08:21:27;;;;;;;9.23;8.32;;;;;;;24.87;51.33;100152.09;4994901;28;20322;-62
2022/09/12 08:24:02;;;;;;;9.52;8.63;;;;;;;25.14;50.82;100153.34;4990251;28;20176;-63
2022/09/12 08:26:28;;;;;;;8.88;8.13;;;;;;;24.84;49.98;100165.59;4987360;28;20600;-63
2022/09/12 08:28:53;;;;;;;9.95;9.05;;;;;;;23.74;56.52;100164.59;4994032;28;20222;-63
2022/09/12 08:31:21;;;;;;;9.82;8.82;;;;;;;23.11;60.10;100171.34;4989315;28;20226;-62
2022/09/12 08:33:47;;;;;;;10.40;9.30;;;;;;;23.18;60.03;100175.00;4986850;28;20571;-62
2022/09/12 08:36:15;;;;;;;10.13;9.13;;;;;;;23.78;58.60;100171.16;4997972;28;20195;-63
2022/09/12 08:38:45;;;;;;;11.48;8.75;;;;;;;23.42;59.88;100175.97;4990940;28;20195;-62
2022/09/12 08:41:36;;;;;;;9.07;8.27;;;;;;;24.68;53.64;100165.69;4996773;28;20713;-62
2022/09/12 08:44:14;;;;;;;9.93;8.73;;;;;;;25.38;51.88;100163.84;4993827;28;20214;-62
2022/09/12 08:47:01;;;;;;;13.95;8.85;;;;;;;24.85;51.25;100175.13;4993477;28;20207;-63
2022/09/12 08:49:48;;;;;;;9.85;8.95;;;;;;;24.02;53.89;100167.63;5007156;28;20187;-63
2022/09/12 08:52:22;;;;;;;10.02;9.00;;;;;;;24.16;54.16;100168.75;4996392;28;20261;-63
2022/09/12 08:54:49;;;;;;;9.85;8.90;;;;;;;23.57;57.22;100170.84;5004617;28;20262;-63
2022/09/12 08:57:15;;;;;;;13.30;8.93;;;;;;;23.30;58.10;100180.75;4994065;28;20184;-62
2022/09/12 08:59:43;;;;;;;9.30;8.38;;;;;;;24.98;51.56;100174.50;4989686;28;20184;-63
2022/09/12 09:02:47;;;;;;;9.10;7.90;;;;;;;24.27;52.58;100177.22;4998041;28;20222;-62
2022/09/12 09:05:31;;;;;;;9.38;7.65;;;;;;;23.45;56.70;100179.06;4991259;28;20210;-63
2022/09/12 09:08:21;;;;;;;9.10;8.30;;;;;;;23.53;56.94;100170.41;4989166;28;20176;-62
2022/09/12 09:11:17;;;;;;;9.63;7.75;;;;;;;23.85;54.74;100169.50;4993695;28;20230;-62
2022/09/12 09:16:40;;;;;;;9.40;8.60;;;;;;;24.53;51.57;100160.34;4984293;28;20550;-63
2022/09/12 09:19:14;;;;;;;10.65;9.65;;;;;;;24.23;53.34;100154.94;4990112;28;20203;-63
2022/09/12 09:21:57;;;;;;;9.40;8.50;;;;;;;24.14;54.06;100156.78;4988376;28;20230;-62
2022/09/12 09:24:51;;;;;;;9.18;8.25;;;;;;;25.62;49.15;100154.88;4987142;28;20274;-63
2022/09/12 09:27:35;;;;;;;8.65;7.93;;;;;;;25.18;48.11;100160.88;4984329;28;20239;-62
2022/09/12 09:30:01;;;;;;;9.38;8.07;;;;;;;25.57;48.55;100158.06;4981635;28;20527;-62
2022/09/12 09:32:30;;;;;;;9.13;7.80;;;;;;;25.77;48.24;100155.69;4980922;28;20250;-62
2022/09/12 09:34:56;;;;;;;8.57;7.78;;;;;;;26.31;46.40;100152.94;4989986;28;20195;-62
2022/09/12 09:37:40;;;;;;;10.10;8.45;;;;;;;25.72;47.79;100157.25;4989667;28;20196;-63
2022/09/12 09:40:50;;;;;;;9.15;7.53;;;;;;;26.68;45.16;100154.56;4980670;28;20200;-62
2022/09/12 09:43:27;;;;;;;8.25;6.88;;;;;;;27.01;44.51;100151.41;5062066;28;20569;-62
2022/09/12 09:45:55;;;;;;;11.90;6.80;;;;;;;27.70;41.86;100159.63;5044883;28;20194;-63
2022/09/12 09:48:39;;;;;;;8.48;7.70;;;;;;;26.86;43.38;100154.13;5047523;28;20708;-63
2022/09/12 09:51:06;;;;;;;8.88;7.75;;;;;;;27.20;42.83;100157.88;5032760;28;20618;-62
2022/09/12 09:53:50;;;;;;;7.85;7.15;;;;;;;26.50;43.23;100154.16;5030052;28;20190;-63
2022/09/12 09:56:39;;;;;;;7.45;6.78;;;;;;;26.02;45.48;100147.50;5009743;28;20542;-62
2022/09/12 09:59:26;;;;;;;8.30;7.40;;;;;;;26.53;44.63;100140.59;5022819;28;20328;-62
2022/09/12 10:01:54;;;;;;;8.70;8.00;;;;;;;26.34;44.30;100142.03;5013813;28;20277;-62
2022/09/12 10:04:30;;;;;;;8.77;7.97;;;;;;;26.28;44.77;100135.66;5004276;28;20183;-61
2022/09/12 10:07:03;;;;;;;7.95;7.22;;;;;;;25.84;46.27;100133.88;5014601;28;20610;-62
2022/09/12 10:09:33;;;;;;;9.82;8.02;;;;;;;26.29;45.27;100132.03;5019697;28;20190;-63
2022/09/12 10:12:18;;;;;;;8.38;7.50;;;;;;;26.62;43.60;100136.84;4998875;28;20237;-62
2022/09/12 10:14:55;;;;;;;8.85;8.02;;;;;;;27.50;40.95;100138.38;5015159;28;20195;-62
2022/09/12 10:17:28;;;;;;;7.18;6.47;;;;;;;27.37;43.36;100125.88;5019824;28;20622;-61
2022/09/12 10:19:54;;;;;;;8.05;7.28;;;;;;;26.36;44.42;100121.56;5021659;28;20183;-62
2022/09/12 10:22:26;;;;;;;8.38;7.43;;;;;;;27.33;41.48;100122.00;5017229;28;20673;-62
2022/09/12 10:24:55;;;;;;;7.97;7.20;;;;;;;29.18;38.24;100120.31;5011024;28;20187;-63
2022/09/12 10:27:24;;;;;;;8.25;6.38;;;;;;;27.36;40.78;100118.94;5009258;28;20207;-61
2022/09/12 10:29:59;;;;;;;8.60;7.55;;;;;;;26.30;43.97;100112.56;5008141;28;20613;-61
2022/09/12 10:32:35;;;;;;;10.82;6.70;;;;;;;25.42;45.91;100105.38;5041865;28;20237;-61
2022/09/12 10:35:14;;;;;;;5.60;5.10;;;;;;;24.98;46.86;100106.09;5029048;28;20638;-61
2022/09/12 10:37:49;;;;;;;7.68;6.70;;;;;;;24.70;46.02;100104.03;5044484;28;20577;-61
2022/09/12 10:40:26;;;;;;;8.75;6.95;;;;;;;23.78;51.18;100100.25;5028065;28;20736;-62
2022/09/12 10:42:54;;;;;;;8.07;6.72;;;;;;;23.23;55.12;100104.47;5042037;28;20638;-61
2022/09/12 10:45:30;;;;;;;7.00;6.40;;;;;;;23.26;55.39;100100.69;5026730;28;20214;-62
2022/09/12 10:48:00;;;;;;;6.15;5.55;;;;;;;23.57;55.03;100092.94;5039826;28;20596;-61
2022/09/12 10:50:38;;;;;;;8.50;6.20;;;;;;;23.85;54.14;100093.31;5028301;28;20240;-62
2022/09/12 10:53:45;;;;;;;10.93;6.38;;;;;;;23.47;56.04;100087.06;5032483;28;20190;-62
2022/09/12 10:56:20;;;;;;;8.13;6.93;;;;;;;23.78;55.57;100079.22;4996954;28;20677;-62
2022/09/12 10:59:23;;;;;;;8.30;5.17;;;;;;;23.08;52.87;100088.56;5003398;28;20183;-62
2022/09/12 11:01:54;;;;;;;8.33;5.20;;;;;;;23.06;54.22;100085.31;4957050;28;20251;-62
2022/09/12 11:04:26;;;;;;;12.27;6.73;;;;;;;22.97;54.91;100076.63;5002663;28;20187;-63
2022/09/12 11:06:54;;;;;;;6.17;5.57;;;;;;;23.11;54.69;100082.16;4998641;28;20313;-62
2022/09/12 11:09:41;;;;;;;12.43;6.63;;;;;;;23.13;54.27;100083.63;4994938;28;20424;-62
2022/09/12 11:12:20;;;;;;;6.10;5.53;;;;;;;22.84;52.93;100077.09;4994640;28;20260;-62
2022/09/12 11:15:17;;;;;;;9.53;5.80;;;;;;;22.51;54.82;100078.91;5002097;28;20660;-63
2022/09/12 11:17:59;;;;;;;6.10;5.50;;;;;;;22.51;56.00;100078.91;4977200;28;20226;-62
2022/09/12 11:20:50;;;;;;;5.57;4.97;;;;;;;22.96;54.38;100072.34;4974306;28;20341;-62
2022/09/12 11:23:15;;;;;;;6.27;5.27;;;;;;;22.99;52.32;100072.00;4993895;28;20206;-62
2022/09/12 11:26:12;;;;;;;5.90;4.53;;;;;;;22.86;54.25;100064.66;4996766;28;20226;-62
2022/09/12 11:28:53;;;;;;;4.83;4.33;;;;;;;22.20;52.25;100067.19;4968713;28;20179;-63
2022/09/12 11:31:40;;;;;;;5.73;4.17;;;;;;;22.08;53.76;100065.84;4950254;28;20313;-62
2022/09/12 11:34:10;;;;;;;5.67;5.13;;;;;;;22.54;55.75;100066.28;5034334;28;20204;-62